Time;durP1;ratioP1;P1;durP2;ratioP2;P2;SDS_P1;SDS_P2;PMS_P1;PMS_P2;Temp;Humidity;BMP_temperature;BMP_pressure;BME280_temperature;BME280_humidity;BME280_pressure;Samples;Min_cycle;Max_cycle;Signal;HPM_P1;HPM_P2
2022/07/09 00:01:18;;;;;;;9.50;5.10;;;;;;;;;;6273582;22;20019;-79
2022/07/09 00:03:44;;;;;;;15.93;5.28;;;;;;;;;;6247691;22;20042;-81
2022/07/09 00:06:10;;;;;;;13.98;5.40;;;;;;;;;;6273406;22;20043;-80
2022/07/09 00:08:36;;;;;;;9.25;4.85;;;;;;;;;;6221804;22;20020;-81
2022/07/09 00:11:05;;;;;;;11.23;4.70;;;;;;;;;;6276811;22;20321;-80
2022/07/09 00:13:31;;;;;;;9.98;4.78;;;;;;;;;;6288468;22;20079;-81
2022/07/09 00:15:57;;;;;;;18.45;5.28;;;;;;;;;;6261018;22;20034;-81
2022/07/09 00:18:23;;;;;;;10.20;4.40;;;;;;;;;;6291045;22;20019;-81
2022/07/09 00:20:49;;;;;;;9.52;4.45;;;;;;;;;;6276629;22;20363;-79
2022/07/09 00:23:15;;;;;;;12.43;4.95;;;;;;;;;;6244856;22;20050;-80
2022/07/09 00:25:46;;;;;;;12.38;5.32;;;;;;;;;;6272511;22;20019;-80
2022/07/09 00:28:12;;;;;;;10.63;5.32;;;;;;;;;;6272900;22;20035;-80
2022/07/09 00:30:38;;;;;;;12.38;4.57;;;;;;;;;;6244652;22;20456;-81
2022/07/09 00:33:04;;;;;;;8.20;4.22;;;;;;;;;;6271135;22;20016;-80
2022/07/09 00:35:30;;;;;;;11.55;4.50;;;;;;;;;;6271404;22;20130;-79
2022/07/09 00:37:56;;;;;;;13.27;4.80;;;;;;;;;;6270103;22;20375;-80
2022/07/09 00:40:22;;;;;;;21.85;5.20;;;;;;;;;;6272867;22;20043;-79
2022/07/09 00:42:48;;;;;;;16.10;5.07;;;;;;;;;;6270403;22;20483;-79
2022/07/09 00:45:17;;;;;;;10.23;4.80;;;;;;;;;;6271487;22;20012;-79
2022/07/09 00:47:43;;;;;;;14.80;4.85;;;;;;;;;;6243267;22;20348;-78
2022/07/09 00:50:09;;;;;;;12.35;5.47;;;;;;;;;;6272209;22;20008;-80
2022/07/09 00:52:35;;;;;;;10.80;5.57;;;;;;;;;;6270918;22;20387;-80
2022/07/09 00:55:02;;;;;;;8.82;5.88;;;;;;;;;;6270791;22;20015;-80
2022/07/09 00:57:29;;;;;;;15.85;6.07;;;;;;;;;;6272753;22;20026;-80
2022/07/09 00:59:55;;;;;;;15.27;6.30;;;;;;;;;;6271904;22;20011;-80
2022/07/09 01:02:24;;;;;;;16.42;6.45;;;;;;;;;;6274255;22;20020;-79
2022/07/09 01:04:51;;;;;;;14.40;6.78;;;;;;;;;;6271017;22;20451;-80
2022/07/09 01:07:17;;;;;;;12.55;6.18;;;;;;;;;;6272573;22;20023;-80
2022/07/09 01:09:43;;;;;;;11.13;6.78;;;;;;;;;;6271076;22;20047;-79
2022/07/09 01:12:09;;;;;;;14.23;6.05;;;;;;;;;;6271064;22;20020;-79
2022/07/09 01:14:35;;;;;;;11.80;6.47;;;;;;;;;;6270582;22;20024;-79
2022/07/09 01:17:02;;;;;;;14.98;7.43;;;;;;;;;;6219034;22;20020;-79
2022/07/09 01:19:29;;;;;;;13.02;7.13;;;;;;;;;;6273456;22;20069;-79
2022/07/09 01:21:58;;;;;;;16.40;7.28;;;;;;;;;;6242700;22;20027;-81
2022/07/09 01:24:24;;;;;;;14.20;7.07;;;;;;;;;;6244689;22;20034;-79
2022/07/09 01:26:52;;;;;;;16.25;7.22;;;;;;;;;;6270232;22;20047;-80
2022/07/09 01:29:18;;;;;;;13.18;7.25;;;;;;;;;;6243905;22;20077;-81
2022/07/09 01:31:44;;;;;;;13.15;6.88;;;;;;;;;;6270052;22;20464;-79
2022/07/09 01:34:10;;;;;;;14.32;6.78;;;;;;;;;;6270353;22;20019;-80
2022/07/09 01:36:36;;;;;;;16.80;7.72;;;;;;;;;;6269777;22;20020;-80
2022/07/09 01:39:03;;;;;;;15.27;7.18;;;;;;;;;;6271327;22;20050;-79
2022/07/09 01:41:31;;;;;;;13.23;7.25;;;;;;;;;;6270156;22;20016;-81
2022/07/09 01:43:58;;;;;;;19.63;7.40;;;;;;;;;;6268323;22;20019;-79
2022/07/09 01:46:24;;;;;;;15.70;7.20;;;;;;;;;;6269119;22;20023;-80
2022/07/09 01:48:50;;;;;;;20.05;7.28;;;;;;;;;;6267948;22;20015;-78
2022/07/09 01:51:16;;;;;;;15.82;7.10;;;;;;;;;;6217601;22;20020;-79
2022/07/09 01:53:42;;;;;;;20.05;7.90;;;;;;;;;;6268272;22;20019;-78
2022/07/09 01:56:09;;;;;;;20.92;8.45;;;;;;;;;;6242181;22;20030;-79
2022/07/09 01:58:36;;;;;;;17.98;7.25;;;;;;;;;;6241005;22;20049;-79
2022/07/09 02:01:02;;;;;;;16.83;8.27;;;;;;;;;;6266071;22;20398;-79
2022/07/09 02:03:32;;;;;;;23.00;8.30;;;;;;;;;;6269475;22;20016;-79
2022/07/09 02:05:58;;;;;;;17.02;7.63;;;;;;;;;;6213922;22;20016;-80
2022/07/09 02:08:24;;;;;;;22.85;7.70;;;;;;;;;;6267439;22;20061;-79
2022/07/09 02:10:51;;;;;;;21.35;7.60;;;;;;;;;;6267702;22;20023;-80
2022/07/09 02:13:17;;;;;;;22.80;8.27;;;;;;;;;;6268791;22;20077;-79
2022/07/09 02:15:43;;;;;;;18.55;7.22;;;;;;;;;;6268157;22;20015;-80
2022/07/09 02:18:09;;;;;;;17.95;7.75;;;;;;;;;;6267655;22;20023;-80
2022/07/09 02:20:36;;;;;;;18.15;8.98;;;;;;;;;;6267879;22;20054;-80
2022/07/09 02:23:02;;;;;;;16.92;8.80;;;;;;;;;;6267136;22;20012;-80
2022/07/09 02:25:28;;;;;;;16.30;7.70;;;;;;;;;;6271366;22;20347;-80
2022/07/09 02:27:57;;;;;;;19.25;8.98;;;;;;;;;;6269900;22;20022;-80
2022/07/09 02:30:23;;;;;;;18.77;8.05;;;;;;;;;;6271775;22;20020;-80
2022/07/09 02:32:49;;;;;;;17.02;7.70;;;;;;;;;;6266276;22;20022;-78
2022/07/09 02:35:15;;;;;;;17.50;8.30;;;;;;;;;;6213453;22;20024;-80
2022/07/09 02:37:42;;;;;;;18.67;8.13;;;;;;;;;;6239020;22;20023;-79
2022/07/09 02:40:08;;;;;;;22.98;8.90;;;;;;;;;;6213198;22;20024;-80
2022/07/09 02:42:36;;;;;;;18.50;8.15;;;;;;;;;;6237566;22;20342;-78
2022/07/09 02:45:02;;;;;;;27.45;8.70;;;;;;;;;;6236621;22;20095;-79
2022/07/09 02:47:28;;;;;;;25.13;8.75;;;;;;;;;;6237990;22;20016;-79
2022/07/09 02:49:54;;;;;;;17.98;7.97;;;;;;;;;;6235178;22;20020;-80
2022/07/09 02:52:21;;;;;;;28.15;8.70;;;;;;;;;;6238031;22;20016;-79
2022/07/09 02:54:47;;;;;;;18.75;8.45;;;;;;;;;;6208298;22;20720;-78
2022/07/09 02:57:13;;;;;;;19.42;8.57;;;;;;;;;;6211439;22;20047;-79
2022/07/09 02:59:39;;;;;;;18.55;8.77;;;;;;;;;;6238980;22;20027;-79
2022/07/09 03:02:05;;;;;;;17.13;8.65;;;;;;;;;;6238610;22;20020;-79
2022/07/09 03:04:31;;;;;;;19.83;8.98;;;;;;;;;;6238533;22;20452;-83
2022/07/09 03:06:57;;;;;;;19.25;8.88;;;;;;;;;;6237337;22;20024;-78
2022/07/09 03:09:23;;;;;;;18.30;8.27;;;;;;;;;;6239973;22;20322;-79
2022/07/09 03:11:49;;;;;;;19.25;8.52;;;;;;;;;;6237114;22;20023;-80
2022/07/09 03:14:15;;;;;;;18.42;8.50;;;;;;;;;;6240086;22;20047;-80
2022/07/09 03:16:41;;;;;;;19.83;8.68;;;;;;;;;;6244111;22;20067;-80
2022/07/09 03:19:07;;;;;;;18.90;7.85;;;;;;;;;;6227881;22;20012;-78
2022/07/09 03:21:33;;;;;;;19.10;8.30;;;;;;;;;;6252746;22;20017;-77
2022/07/09 03:23:59;;;;;;;23.45;9.07;;;;;;;;;;6255329;22;20020;-78
2022/07/09 03:26:25;;;;;;;22.10;8.32;;;;;;;;;;6244289;22;20088;-78
2022/07/09 03:28:51;;;;;;;24.17;7.50;;;;;;;;;;6238343;22;20027;-79
2022/07/09 03:31:18;;;;;;;20.70;7.45;;;;;;;;;;6241193;22;20397;-78
2022/07/09 03:33:44;;;;;;;20.35;8.82;;;;;;;;;;6252092;22;20106;-79
2022/07/09 03:36:10;;;;;;;23.42;7.38;;;;;;;;;;6269953;22;20410;-78
2022/07/09 03:38:36;;;;;;;18.02;8.00;;;;;;;;;;6269221;22;20024;-79
2022/07/09 03:41:02;;;;;;;23.60;7.38;;;;;;;;;;6269995;22;20439;-78
2022/07/09 03:43:28;;;;;;;15.52;6.65;;;;;;;;;;6268794;22;20016;-79
2022/07/09 03:45:54;;;;;;;13.63;7.10;;;;;;;;;;6268170;22;20037;-78
2022/07/09 03:48:20;;;;;;;14.93;6.88;;;;;;;;;;6269766;22;20020;-78
2022/07/09 03:50:47;;;;;;;15.70;6.80;;;;;;;;;;6191293;22;20012;-79
2022/07/09 03:53:13;;;;;;;15.98;6.30;;;;;;;;;;6271624;22;20118;-78
2022/07/09 03:55:39;;;;;;;14.75;6.00;;;;;;;;;;6269432;22;20023;-78
2022/07/09 03:58:05;;;;;;;13.40;6.00;;;;;;;;;;6270145;22;20020;-79
2022/07/09 04:00:31;;;;;;;14.93;6.50;;;;;;;;;;6268994;22;20026;-81
2022/07/09 04:02:57;;;;;;;17.10;6.50;;;;;;;;;;6268857;22;20024;-79
2022/07/09 04:05:23;;;;;;;11.38;5.97;;;;;;;;;;6269243;22;20106;-78
2022/07/09 04:07:49;;;;;;;16.77;6.03;;;;;;;;;;6268535;22;20018;-80
2022/07/09 04:10:16;;;;;;;11.60;5.70;;;;;;;;;;6270190;22;20032;-79
2022/07/09 04:12:42;;;;;;;14.57;5.20;;;;;;;;;;6267403;22;20042;-78
2022/07/09 04:15:17;;;;;;;19.52;6.13;;;;;;;;;;6270031;22;20020;-79
2022/07/09 04:17:43;;;;;;;12.98;5.85;;;;;;;;;;6269643;22;20498;-79
2022/07/09 04:20:10;;;;;;;20.13;6.18;;;;;;;;;;6268633;22;20023;-79
2022/07/09 04:22:36;;;;;;;12.77;5.47;;;;;;;;;;6269900;22;20069;-79
2022/07/09 04:25:02;;;;;;;10.82;5.07;;;;;;;;;;6269156;22;20021;-78
2022/07/09 04:27:28;;;;;;;22.33;5.95;;;;;;;;;;6241702;22;20454;-79
2022/07/09 04:29:54;;;;;;;14.68;5.43;;;;;;;;;;6239890;22;20069;-78
2022/07/09 04:32:20;;;;;;;17.98;5.57;;;;;;;;;;6241808;22;20012;-78
2022/07/09 04:34:46;;;;;;;15.55;5.10;;;;;;;;;;6267702;22;20062;-79
2022/07/09 04:37:12;;;;;;;11.93;5.35;;;;;;;;;;6269830;22;20099;-78
2022/07/09 04:39:39;;;;;;;10.57;5.40;;;;;;;;;;6269777;22;20114;-80
2022/07/09 04:42:05;;;;;;;9.70;5.13;;;;;;;;;;6269105;22;20023;-79
2022/07/09 04:44:31;;;;;;;10.98;4.93;;;;;;;;;;6270026;22;20019;-79
2022/07/09 04:47:00;;;;;;;12.27;5.32;;;;;;;;;;6269054;22;20336;-79
2022/07/09 04:49:26;;;;;;;14.73;4.75;;;;;;;;;;6269894;22;20020;-78
2022/07/09 04:51:52;;;;;;;13.23;5.30;;;;;;;;;;6267748;22;20490;-79
2022/07/09 04:54:18;;;;;;;13.60;5.50;;;;;;;;;;6268934;22;20034;-80
2022/07/09 04:56:44;;;;;;;10.05;4.80;;;;;;;;;;6268866;22;20027;-79
2022/07/09 04:59:10;;;;;;;22.65;5.10;;;;;;;;;;6268185;22;20102;-78
2022/07/09 05:01:36;;;;;;;13.95;6.07;;;;;;;;;;6270137;22;20439;-78
2022/07/09 05:04:02;;;;;;;17.42;5.93;;;;;;;;;;6239159;22;20100;-78
2022/07/09 05:06:28;;;;;;;9.27;5.38;;;;;;;;;;6242171;22;20019;-79
2022/07/09 05:08:54;;;;;;;16.42;6.50;;;;;;;;;;6266227;22;20095;-79
2022/07/09 05:11:21;;;;;;;13.20;5.80;;;;;;;;;;6269832;22;20020;-78
2022/07/09 05:13:47;;;;;;;8.80;5.20;;;;;;;;;;6267681;22;20012;-79
2022/07/09 05:16:13;;;;;;;11.73;5.45;;;;;;;;;;6269480;22;20030;-79
2022/07/09 05:18:42;;;;;;;13.70;5.80;;;;;;;;;;6271156;22;20450;-79
2022/07/09 05:21:09;;;;;;;11.48;5.90;;;;;;;;;;6242414;22;20065;-78
2022/07/09 05:23:35;;;;;;;12.23;5.75;;;;;;;;;;6269811;22;20089;-79
2022/07/09 05:26:03;;;;;;;12.90;6.32;;;;;;;;;;6266804;22;20440;-79
2022/07/09 05:28:30;;;;;;;14.30;6.80;;;;;;;;;;6241112;22;20735;-79
2022/07/09 05:30:59;;;;;;;14.00;6.03;;;;;;;;;;6265949;22;20019;-80
2022/07/09 05:33:25;;;;;;;14.50;6.85;;;;;;;;;;6269227;22;20030;-81
2022/07/09 05:35:52;;;;;;;12.75;6.50;;;;;;;;;;6240518;22;20020;-80
2022/07/09 05:38:18;;;;;;;13.60;6.43;;;;;;;;;;6268468;22;20016;-79
2022/07/09 05:40:44;;;;;;;12.15;6.43;;;;;;;;;;6269796;22;20478;-81
2022/07/09 05:43:19;;;;;;;12.27;6.25;;;;;;;;;;6269693;22;20466;-79
2022/07/09 05:45:45;;;;;;;18.35;7.50;;;;;;;;;;6269540;22;20024;-79
2022/07/09 05:48:11;;;;;;;13.57;6.00;;;;;;;;;;6266860;22;20016;-80
2022/07/09 05:50:37;;;;;;;14.43;6.22;;;;;;;;;;6269179;22;20020;-79
2022/07/09 05:53:03;;;;;;;16.10;6.22;;;;;;;;;;6240288;22;20062;-80
2022/07/09 05:55:29;;;;;;;12.45;6.18;;;;;;;;;;6267630;22;20020;-78
2022/07/09 05:57:55;;;;;;;14.32;5.88;;;;;;;;;;6240659;22;20478;-79
2022/07/09 06:00:21;;;;;;;11.55;6.25;;;;;;;;;;6269160;22;20526;-78
2022/07/09 06:02:47;;;;;;;9.70;5.25;;;;;;;;;;6271181;22;20016;-79
2022/07/09 06:05:14;;;;;;;12.85;5.80;;;;;;;;;;6269376;22;20016;-79
2022/07/09 06:07:44;;;;;;;11.23;5.53;;;;;;;;;;6270890;22;20011;-79
2022/07/09 06:10:12;;;;;;;11.93;5.13;;;;;;;;;;6267470;22;20050;-79
2022/07/09 06:12:38;;;;;;;11.75;5.50;;;;;;;;;;6269251;22;20027;-81
2022/07/09 06:15:05;;;;;;;17.65;5.50;;;;;;;;;;6268299;22;20016;-79
2022/07/09 06:17:31;;;;;;;14.55;5.88;;;;;;;;;;6269426;22;20023;-79
2022/07/09 06:19:57;;;;;;;10.48;5.18;;;;;;;;;;6240935;22;20035;-78
2022/07/09 06:22:23;;;;;;;11.35;5.22;;;;;;;;;;6277763;22;20016;-78
2022/07/09 06:24:49;;;;;;;12.50;5.28;;;;;;;;;;6279825;22;20023;-79
2022/07/09 06:27:15;;;;;;;10.10;4.55;;;;;;;;;;6279871;22;20019;-79
2022/07/09 06:29:41;;;;;;;12.35;4.60;;;;;;;;;;6244802;22;20024;-80
2022/07/09 06:32:07;;;;;;;10.15;4.65;;;;;;;;;;6268003;22;20435;-80
2022/07/09 06:34:37;;;;;;;12.30;4.60;;;;;;;;;;6268501;22;20016;-80
2022/07/09 06:37:03;;;;;;;15.95;5.07;;;;;;;;;;6239850;22;20024;-80
2022/07/09 06:39:44;;;;;;;13.68;5.38;;;;;;;;;;6270528;22;20162;-80
2022/07/09 06:42:14;;;;;;;12.02;4.28;;;;;;;;;;6262494;22;20027;-80
2022/07/09 06:44:41;;;;;;;11.20;4.20;;;;;;;;;;6242019;22;20327;-80
2022/07/09 06:47:07;;;;;;;4.95;3.13;;;;;;;;;;6268887;22;20030;-80
2022/07/09 06:49:34;;;;;;;10.32;2.72;;;;;;;;;;6268274;22;20110;-80
2022/07/09 06:52:00;;;;;;;11.38;3.00;;;;;;;;;;6265551;22;20019;-80
2022/07/09 06:54:32;;;;;;;7.85;2.15;;;;;;;;;;6237158;22;20016;-81
2022/07/09 06:57:01;;;;;;;10.82;2.60;;;;;;;;;;6266537;22;20089;-80
2022/07/09 06:59:27;;;;;;;9.70;2.20;;;;;;;;;;6266147;22;20020;-80
2022/07/09 07:01:53;;;;;;;16.95;3.10;;;;;;;;;;6268884;22;20023;-80
2022/07/09 07:04:20;;;;;;;11.00;2.42;;;;;;;;;;6266442;22;20395;-78
2022/07/09 07:06:49;;;;;;;9.57;2.30;;;;;;;;;;6266111;22;20395;-79
2022/07/09 07:09:18;;;;;;;9.23;2.22;;;;;;;;;;6265080;22;20502;-80
2022/07/09 07:11:45;;;;;;;7.53;2.50;;;;;;;;;;6241646;22;20058;-80
2022/07/09 07:14:12;;;;;;;8.13;2.30;;;;;;;;;;6265937;22;20062;-80
2022/07/09 07:16:42;;;;;;;10.50;2.47;;;;;;;;;;6268053;22;20024;-80
2022/07/09 07:19:08;;;;;;;14.00;2.50;;;;;;;;;;6240581;22;20031;-80
2022/07/09 07:21:34;;;;;;;5.18;1.85;;;;;;;;;;6267585;22;20048;-80
2022/07/09 07:24:03;;;;;;;10.35;2.35;;;;;;;;;;6267212;22;20207;-79
2022/07/09 07:26:30;;;;;;;7.57;2.22;;;;;;;;;;6265208;22;20087;-78
2022/07/09 07:28:56;;;;;;;10.00;2.80;;;;;;;;;;6240215;22;20022;-80
2022/07/09 07:31:23;;;;;;;7.88;1.90;;;;;;;;;;6268424;22;20027;-79
2022/07/09 07:33:49;;;;;;;8.43;2.20;;;;;;;;;;6243223;22;20047;-79
2022/07/09 07:36:15;;;;;;;7.22;2.53;;;;;;;;;;6241371;22;20432;-80
2022/07/09 07:38:41;;;;;;;9.07;1.90;;;;;;;;;;6243977;22;20070;-80
2022/07/09 07:41:07;;;;;;;9.82;2.17;;;;;;;;;;6270808;22;20081;-80
2022/07/09 07:43:34;;;;;;;9.77;2.17;;;;;;;;;;6269452;22;20030;-81
2022/07/09 07:46:00;;;;;;;6.30;2.10;;;;;;;;;;6267608;22;20015;-79
2022/07/09 07:48:27;;;;;;;9.82;2.08;;;;;;;;;;6266993;22;20431;-79
2022/07/09 07:50:54;;;;;;;8.40;2.03;;;;;;;;;;6268828;22;20046;-79
2022/07/09 07:53:26;;;;;;;7.53;1.60;;;;;;;;;;6265471;22;20020;-80
2022/07/09 07:55:52;;;;;;;6.45;1.77;;;;;;;;;;6240549;22;20023;-81
2022/07/09 07:58:31;;;;;;;8.38;1.80;;;;;;;;;;6266465;22;20025;-79
2022/07/09 08:00:57;;;;;;;7.50;1.98;;;;;;;;;;6267614;22;20118;-79
2022/07/09 08:03:23;;;;;;;11.55;2.17;;;;;;;;;;6267866;22;20022;-78
2022/07/09 08:05:49;;;;;;;9.52;3.03;;;;;;;;;;6242740;22;20020;-79
2022/07/09 08:08:15;;;;;;;8.23;2.15;;;;;;;;;;6269396;22;20023;-79
2022/07/09 08:10:41;;;;;;;5.97;1.95;;;;;;;;;;6269755;22;20023;-80
2022/07/09 08:13:07;;;;;;;7.47;1.88;;;;;;;;;;6271606;22;20020;-81
2022/07/09 08:15:33;;;;;;;8.60;1.80;;;;;;;;;;6241842;22;20030;-80
2022/07/09 08:18:00;;;;;;;8.70;2.38;;;;;;;;;;6271185;22;20482;-80
2022/07/09 08:20:26;;;;;;;9.88;2.05;;;;;;;;;;6215390;22;20016;-80
2022/07/09 08:22:52;;;;;;;7.15;2.20;;;;;;;;;;6271815;22;20464;-79
2022/07/09 08:25:18;;;;;;;7.78;2.05;;;;;;;;;;6244861;22;20030;-80
2022/07/09 08:27:44;;;;;;;10.35;2.33;;;;;;;;;;6272340;22;20475;-79
2022/07/09 08:30:10;;;;;;;11.35;2.15;;;;;;;;;;6271649;22;20069;-81
2022/07/09 08:32:38;;;;;;;5.65;1.60;;;;;;;;;;6270814;22;20723;-82
2022/07/09 08:35:04;;;;;;;7.18;1.92;;;;;;;;;;6242247;23;20024;-82
2022/07/09 08:37:31;;;;;;;11.35;2.70;;;;;;;;;;6163842;23;20539;-81
2022/07/09 08:39:57;;;;;;;7.57;2.22;;;;;;;;;;6245586;23;20020;-82
2022/07/09 08:42:23;;;;;;;8.77;2.08;;;;;;;;;;6215631;23;20020;-82
2022/07/09 08:45:07;;;;;;;9.30;2.35;;;;;;;;;;6246018;23;20038;-81
2022/07/09 08:47:35;;;;;;;7.93;2.40;;;;;;;;;;6241507;23;20020;-80
2022/07/09 08:50:01;;;;;;;7.82;2.13;;;;;;;;;;6216110;23;20039;-80
2022/07/09 08:52:27;;;;;;;9.63;2.30;;;;;;;;;;6214981;23;20448;-82
2022/07/09 08:54:54;;;;;;;5.75;1.85;;;;;;;;;;6242153;23;20359;-81
2022/07/09 08:57:20;;;;;;;7.75;2.28;;;;;;;;;;6243297;23;20024;-82
2022/07/09 08:59:46;;;;;;;10.30;2.33;;;;;;;;;;6239532;23;20062;-81
2022/07/09 09:02:19;;;;;;;6.85;2.63;;;;;;;;;;6241306;23;20031;-80
2022/07/09 09:04:45;;;;;;;9.32;2.28;;;;;;;;;;6240192;23;20084;-81
2022/07/09 09:07:16;;;;;;;9.68;2.17;;;;;;;;;;6212502;23;20376;-81
2022/07/09 09:09:49;;;;;;;8.77;2.20;;;;;;;;;;6188105;23;20024;-82
2022/07/09 09:12:35;;;;;;;10.80;2.03;;;;;;;;;;6241208;23;20051;-82
2022/07/09 09:15:06;;;;;;;7.85;2.03;;;;;;;;;;6212155;23;20031;-82
2022/07/09 09:17:33;;;;;;;13.55;2.15;;;;;;;;;;6241665;23;20027;-81
2022/07/09 09:19:59;;;;;;;8.60;2.15;;;;;;;;;;6188432;23;20016;-82
2022/07/09 09:22:25;;;;;;;6.78;2.00;;;;;;;;;;6266630;22;20124;-81
2022/07/09 09:24:53;;;;;;;10.90;2.47;;;;;;;;;;6272034;22;20024;-82
2022/07/09 09:27:28;;;;;;;6.35;2.03;;;;;;;;;;6195399;22;20020;-82
2022/07/09 09:30:03;;;;;;;9.82;2.47;;;;;;;;;;6276757;22;20369;-81
2022/07/09 09:32:35;;;;;;;11.77;2.53;;;;;;;;;;6273635;22;20020;-82
2022/07/09 09:35:23;;;;;;;9.85;2.50;;;;;;;;;;6245727;22;20165;-83
2022/07/09 09:37:51;;;;;;;9.40;1.98;;;;;;;;;;6275048;22;20024;-81
2022/07/09 09:40:17;;;;;;;7.22;2.33;;;;;;;;;;6246437;22;20016;-83
2022/07/09 09:42:45;;;;;;;13.02;2.45;;;;;;;;;;6246464;22;20394;-81
2022/07/09 09:45:18;;;;;;;10.02;2.15;;;;;;;;;;6271999;22;20012;-83
2022/07/09 09:47:48;;;;;;;9.35;2.65;;;;;;;;;;6273136;22;20023;-81
2022/07/09 09:50:20;;;;;;;7.70;2.40;;;;;;;;;;6245089;22;20027;-82
2022/07/09 09:52:47;;;;;;;9.15;2.20;;;;;;;;;;6242728;22;20046;-81
2022/07/09 09:55:14;;;;;;;8.48;2.50;;;;;;;;;;6267933;22;20533;-82
2022/07/09 09:57:41;;;;;;;10.48;2.70;;;;;;;;;;6192045;22;20020;-82
2022/07/09 10:00:08;;;;;;;10.48;2.97;;;;;;;;;;6217658;22;20015;-82
2022/07/09 10:02:35;;;;;;;8.02;2.63;;;;;;;;;;6271827;22;20456;-83
2022/07/09 10:05:02;;;;;;;8.57;2.05;;;;;;;;;;6268763;22;20550;-83
2022/07/09 10:07:29;;;;;;;5.05;1.65;;;;;;;;;;6266840;22;20398;-84
2022/07/09 10:10:02;;;;;;;8.00;2.00;;;;;;;;;;6194711;22;20027;-83
2022/07/09 10:12:35;;;;;;;8.57;2.20;;;;;;;;;;6271017;22;20026;-81
2022/07/09 10:15:01;;;;;;;9.00;2.15;;;;;;;;;;6225156;22;20047;-82
2022/07/09 10:17:28;;;;;;;9.15;1.85;;;;;;;;;;6271265;22;20077;-81
2022/07/09 10:19:55;;;;;;;9.65;1.92;;;;;;;;;;6220632;22;20050;-81
2022/07/09 10:22:40;;;;;;;11.98;2.28;;;;;;;;;;6225618;22;20019;-82
2022/07/09 10:25:07;;;;;;;7.40;2.58;;;;;;;;;;6252556;22;21128;-82
2022/07/09 10:27:49;;;;;;;10.25;2.50;;;;;;;;;;6238942;22;20028;-79
2022/07/09 10:30:40;;;;;;;10.52;3.00;;;;;;;;;;6249079;22;20063;-81
2022/07/09 10:36:22;;;;;;;10.20;2.67;;;;;;;;;;6249185;22;20437;-81
2022/07/09 10:39:13;;;;;;;13.63;2.33;;;;;;;;;;6201163;23;20028;-81
2022/07/09 10:41:59;;;;;;;14.50;3.10;;;;;;;;;;6253189;23;20098;-83
2022/07/09 10:44:45;;;;;;;12.43;2.65;;;;;;;;;;6251716;23;20034;-83
2022/07/09 10:47:12;;;;;;;9.77;2.40;;;;;;;;;;6253552;23;20020;-83
2022/07/09 10:50:02;;;;;;;15.30;2.53;;;;;;;;;;6162035;23;20032;-81
2022/07/09 10:52:37;;;;;;;10.90;2.50;;;;;;;;;;6165018;23;20017;-81
2022/07/09 10:55:03;;;;;;;13.43;2.67;;;;;;;;;;6169645;23;20035;-81
2022/07/09 10:57:29;;;;;;;12.07;2.05;;;;;;;;;;6169282;23;20048;-80
2022/07/09 11:00:13;;;;;;;11.82;2.13;;;;;;;;;;6131039;23;20022;-79
2022/07/09 11:03:10;;;;;;;13.07;2.00;;;;;;;;;;6155153;23;20030;-83
2022/07/09 11:05:46;;;;;;;9.38;2.20;;;;;;;;;;6153334;23;20044;-81
2022/07/09 11:11:35;;;;;;;8.70;1.48;;;;;;;;;;6152028;23;20369;-82
2022/07/09 11:14:01;;;;;;;13.13;2.38;;;;;;;;;;6151138;23;20390;-81
2022/07/09 11:16:33;;;;;;;8.32;1.52;;;;;;;;;;6152115;23;20477;-81
2022/07/09 11:19:15;;;;;;;14.10;2.72;;;;;;;;;;6151757;23;20017;-79
2022/07/09 11:21:50;;;;;;;8.38;1.67;;;;;;;;;;6236665;23;20023;-81
2022/07/09 11:24:23;;;;;;;6.18;1.88;;;;;;;;;;6246486;23;20329;-81
2022/07/09 11:26:49;;;;;;;11.60;2.08;;;;;;;;;;6245686;23;20067;-82
2022/07/09 11:29:48;;;;;;;7.00;1.40;;;;;;;;;;6242591;23;20023;-81
2022/07/09 11:32:20;;;;;;;8.40;1.92;;;;;;;;;;6241544;23;20052;-81
2022/07/09 11:34:58;;;;;;;10.38;2.38;;;;;;;;;;6213895;23;20063;-80
2022/07/09 11:37:27;;;;;;;6.97;1.40;;;;;;;;;;6239087;23;20024;-81
2022/07/09 11:39:56;;;;;;;5.88;1.48;;;;;;;;;;6216560;23;20393;-81
2022/07/09 11:42:29;;;;;;;10.27;1.65;;;;;;;;;;6189835;23;20352;-80
2022/07/09 11:44:57;;;;;;;7.43;1.00;;;;;;;;;;6241678;23;20072;-81
2022/07/09 11:47:33;;;;;;;8.82;1.85;;;;;;;;;;6239074;23;20020;-79
2022/07/09 11:50:06;;;;;;;5.05;1.20;;;;;;;;;;6227438;22;20460;-81
2022/07/09 11:52:36;;;;;;;7.03;1.42;;;;;;;;;;6185327;23;20099;-79
2022/07/09 11:55:08;;;;;;;4.28;1.15;;;;;;;;;;6212389;23;20099;-80
2022/07/09 11:57:35;;;;;;;8.85;1.60;;;;;;;;;;6159013;23;20437;-81
2022/07/09 12:00:03;;;;;;;7.28;1.20;;;;;;;;;;6212142;23;20023;-80
2022/07/09 12:02:37;;;;;;;7.35;1.48;;;;;;;;;;6207813;23;20059;-81
2022/07/09 12:05:04;;;;;;;5.63;1.65;;;;;;;;;;6210801;23;20095;-80
2022/07/09 12:07:34;;;;;;;7.75;1.67;;;;;;;;;;6207286;23;20024;-79
2022/07/09 12:10:07;;;;;;;8.43;1.52;;;;;;;;;;6209737;23;20119;-80
2022/07/09 12:12:44;;;;;;;12.70;1.80;;;;;;;;;;6209957;23;20025;-81
2022/07/09 12:15:10;;;;;;;19.42;1.80;;;;;;;;;;6209587;23;20047;-79
2022/07/09 12:17:55;;;;;;;8.68;2.03;;;;;;;;;;6158642;23;20028;-80
2022/07/09 12:20:25;;;;;;;7.78;1.38;;;;;;;;;;6183821;23;20080;-81
2022/07/09 12:22:54;;;;;;;8.27;1.30;;;;;;;;;;6213670;23;20735;-80
2022/07/09 12:25:22;;;;;;;7.32;1.75;;;;;;;;;;6209492;23;20025;-80
2022/07/09 12:27:51;;;;;;;6.35;1.50;;;;;;;;;;6182875;23;20025;-81
2022/07/09 12:30:17;;;;;;;6.32;1.27;;;;;;;;;;6211442;23;20028;-81
2022/07/09 12:32:44;;;;;;;8.38;1.35;;;;;;;;;;6209426;23;20036;-81
2022/07/09 12:35:11;;;;;;;7.53;1.27;;;;;;;;;;6209655;23;20051;-81
2022/07/09 12:37:37;;;;;;;6.68;0.95;;;;;;;;;;6210687;23;20490;-82
2022/07/09 12:40:10;;;;;;;9.77;1.52;;;;;;;;;;6212210;23;20699;-80
2022/07/09 12:42:37;;;;;;;8.15;1.27;;;;;;;;;;6209771;23;20031;-81
2022/07/09 12:45:15;;;;;;;4.60;1.30;;;;;;;;;;6185734;23;20013;-81
2022/07/09 12:47:52;;;;;;;5.50;1.60;;;;;;;;;;6184553;23;20032;-81
2022/07/09 12:50:18;;;;;;;4.78;1.50;;;;;;;;;;6212338;23;20074;-81
2022/07/09 12:52:44;;;;;;;4.85;1.20;;;;;;;;;;6183313;23;20075;-81
2022/07/09 12:55:10;;;;;;;4.78;1.17;;;;;;;;;;6211574;23;20095;-80
2022/07/09 12:57:39;;;;;;;4.30;1.35;;;;;;;;;;6209715;23;20021;-83
2022/07/09 13:00:06;;;;;;;5.90;1.27;;;;;;;;;;6185233;23;20476;-79
2022/07/09 13:02:33;;;;;;;3.65;1.15;;;;;;;;;;6183426;23;20377;-81
2022/07/09 13:04:59;;;;;;;5.65;1.30;;;;;;;;;;6183042;23;20047;-81
2022/07/09 13:07:25;;;;;;;9.27;1.75;;;;;;;;;;6184105;23;20369;-82
2022/07/09 13:09:52;;;;;;;7.57;1.77;;;;;;;;;;6186246;23;20074;-81
2022/07/09 13:12:18;;;;;;;7.45;1.30;;;;;;;;;;6184376;23;20020;-81
2022/07/09 13:14:44;;;;;;;6.60;1.50;;;;;;;;;;6210114;23;20028;-81
2022/07/09 13:17:10;;;;;;;3.90;1.30;;;;;;;;;;6211217;23;20377;-80
2022/07/09 13:19:37;;;;;;;5.07;1.20;;;;;;;;;;6184270;23;20095;-80
2022/07/09 13:22:03;;;;;;;7.25;1.48;;;;;;;;;;6186579;23;20020;-80
2022/07/09 13:24:32;;;;;;;8.73;1.30;;;;;;;;;;6209741;23;20100;-80
2022/07/09 13:27:08;;;;;;;4.30;1.27;;;;;;;;;;6210250;23;20016;-80
2022/07/09 13:29:34;;;;;;;4.85;1.10;;;;;;;;;;6209565;23;20024;-80
2022/07/09 13:32:00;;;;;;;7.10;1.40;;;;;;;;;;6210366;23;20044;-80
2022/07/09 13:34:26;;;;;;;4.40;1.00;;;;;;;;;;6208967;23;20448;-80
2022/07/09 13:36:55;;;;;;;2.60;1.23;;;;;;;;;;6208926;23;20027;-81
2022/07/09 13:39:22;;;;;;;5.75;1.20;;;;;;;;;;6207913;23;20021;-80
2022/07/09 13:41:48;;;;;;;4.05;1.42;;;;;;;;;;6185321;23;20023;-83
2022/07/09 13:44:14;;;;;;;5.22;1.30;;;;;;;;;;6184387;23;20020;-81
2022/07/09 13:46:40;;;;;;;4.85;1.08;;;;;;;;;;6209378;23;20255;-79
2022/07/09 13:49:09;;;;;;;8.32;1.08;;;;;;;;;;6212924;23;20027;-80
2022/07/09 13:51:35;;;;;;;9.07;1.35;;;;;;;;;;6209513;23;20020;-82
2022/07/09 13:54:04;;;;;;;5.70;1.52;;;;;;;;;;6211194;23;20044;-82
2022/07/09 13:56:30;;;;;;;6.80;1.40;;;;;;;;;;6211079;23;21234;-81
2022/07/09 13:58:56;;;;;;;8.07;1.73;;;;;;;;;;6160380;23;20028;-79
2022/07/09 14:01:22;;;;;;;3.17;1.20;;;;;;;;;;6217018;23;20024;-79
2022/07/09 14:03:49;;;;;;;4.75;1.15;;;;;;;;;;6221872;23;20024;-80
2022/07/09 14:06:18;;;;;;;5.78;1.50;;;;;;;;;;6220983;23;20017;-79
2022/07/09 14:09:03;;;;;;;6.45;1.20;;;;;;;;;;6173855;23;20040;-80
2022/07/09 14:11:30;;;;;;;6.18;1.15;;;;;;;;;;6169489;23;20077;-81
2022/07/09 14:13:57;;;;;;;5.78;1.67;;;;;;;;;;6194976;23;20043;-80
2022/07/09 14:16:24;;;;;;;7.88;1.92;;;;;;;;;;6219270;23;20028;-78
2022/07/09 14:18:52;;;;;;;7.00;1.58;;;;;;;;;;6222204;23;20448;-79
2022/07/09 14:21:18;;;;;;;4.70;1.40;;;;;;;;;;6209707;23;20448;-81
2022/07/09 14:23:47;;;;;;;4.78;1.30;;;;;;;;;;6208704;23;20086;-79
2022/07/09 14:26:17;;;;;;;10.85;1.42;;;;;;;;;;6204830;23;20027;-80
2022/07/09 14:28:43;;;;;;;9.13;1.70;;;;;;;;;;6208184;23;20167;-80
2022/07/09 14:31:09;;;;;;;5.95;1.20;;;;;;;;;;6205848;23;20024;-80
2022/07/09 14:33:35;;;;;;;7.80;1.58;;;;;;;;;;6182708;23;20060;-81
2022/07/09 14:36:01;;;;;;;8.32;1.95;;;;;;;;;;6208458;23;20048;-81
2022/07/09 14:38:27;;;;;;;5.22;1.55;;;;;;;;;;6180018;23;20028;-81
2022/07/09 14:40:53;;;;;;;8.07;1.55;;;;;;;;;;6208456;23;20402;-79
2022/07/09 14:43:22;;;;;;;8.80;1.58;;;;;;;;;;6205917;23;20027;-78
2022/07/09 14:45:49;;;;;;;5.80;1.95;;;;;;;;;;6158809;23;20031;-79
2022/07/09 14:48:15;;;;;;;5.80;1.27;;;;;;;;;;6207047;23;20384;-80